Terminal Aerodrome Forecast
Issued by NWS

Home | Current Version | Previous Version | Text Only | Print | Product List | Glossary On
Versions: 1 2 3 4 5 6 7 8 9 10 11 12 13 14 15 16 17 18 19 20 21 22 23 24 25 26 27 28 29 30 31 32 33 34 35 36
000
FTAK31 PANC 060537
TAFADQ
TAF
PADQ 060537Z 0606/0706 VRB06KT P6SM SCT030 BKN050
      TEMPO 0606/0608 BKN030
     FM061200 27004KT P6SM FEW035 SCT070 BKN120
     FM061800 19006KT P6SM FEW050 BKN100
     FM070200 19012KT P6SM BKN050=

USA.gov is the U.S. government's official web portal to all federal, state and local government web resources and services.